sensor_id;sensor_type;location;lat;lon;timestamp;P1;durP1;ratioP1;P2;durP2;ratioP2
76826;SDS011;65788;52.284;20.890;2022-12-11T00:01:22;17.50;;;11.90;;
76826;SDS011;65788;52.284;20.890;2022-12-11T00:03:54;18.80;;;13.00;;
76826;SDS011;65788;52.284;20.890;2022-12-11T00:06:26;16.70;;;12.50;;
76826;SDS011;65788;52.284;20.890;2022-12-11T00:08:57;17.40;;;12.70;;
76826;SDS011;65788;52.284;20.890;2022-12-11T00:11:29;16.50;;;11.90;;
76826;SDS011;65788;52.284;20.890;2022-12-11T00:14:00;17.00;;;12.00;;
76826;SDS011;65788;52.284;20.890;2022-12-11T00:16:31;16.50;;;11.70;;
76826;SDS011;65788;52.284;20.890;2022-12-11T00:19:02;17.90;;;12.10;;
76826;SDS011;65788;52.284;20.890;2022-12-11T00:21:33;15.50;;;11.50;;
76826;SDS011;65788;52.284;20.890;2022-12-11T00:24:05;16.30;;;12.40;;
76826;SDS011;65788;52.284;20.890;2022-12-11T00:26:37;16.80;;;12.00;;
76826;SDS011;65788;52.284;20.890;2022-12-11T00:29:09;16.20;;;12.30;;
76826;SDS011;65788;52.284;20.890;2022-12-11T00:31:43;15.20;;;11.80;;
76826;SDS011;65788;52.284;20.890;2022-12-11T00:34:14;16.00;;;12.30;;
76826;SDS011;65788;52.284;20.890;2022-12-11T00:36:45;16.10;;;11.50;;
76826;SDS011;65788;52.284;20.890;2022-12-11T00:39:16;15.30;;;12.00;;
76826;SDS011;65788;52.284;20.890;2022-12-11T00:41:47;16.40;;;11.60;;
76826;SDS011;65788;52.284;20.890;2022-12-11T00:44:18;16.00;;;11.40;;
76826;SDS011;65788;52.284;20.890;2022-12-11T00:46:49;15.10;;;11.30;;
76826;SDS011;65788;52.284;20.890;2022-12-11T00:49:20;14.80;;;11.20;;
76826;SDS011;65788;52.284;20.890;2022-12-11T00:51:51;15.90;;;11.80;;
76826;SDS011;65788;52.284;20.890;2022-12-11T00:54:22;15.80;;;11.50;;
76826;SDS011;65788;52.284;20.890;2022-12-11T00:56:55;16.60;;;12.40;;
76826;SDS011;65788;52.284;20.890;2022-12-11T00:59:26;15.60;;;11.20;;
76826;SDS011;65788;52.284;20.890;2022-12-11T01:01:57;15.20;;;11.10;;
76826;SDS011;65788;52.284;20.890;2022-12-11T01:04:28;14.40;;;11.20;;
76826;SDS011;65788;52.284;20.890;2022-12-11T01:07:00;14.40;;;11.70;;
76826;SDS011;65788;52.284;20.890;2022-12-11T01:09:31;13.10;;;10.30;;
76826;SDS011;65788;52.284;20.890;2022-12-11T01:12:20;15.40;;;11.50;;
76826;SDS011;65788;52.284;20.890;2022-12-11T01:14:51;15.50;;;10.90;;
76826;SDS011;65788;52.284;20.890;2022-12-11T01:17:22;13.90;;;11.20;;
76826;SDS011;65788;52.284;20.890;2022-12-11T01:19:53;15.20;;;10.60;;
76826;SDS011;65788;52.284;20.890;2022-12-11T01:22:24;14.90;;;11.20;;
76826;SDS011;65788;52.284;20.890;2022-12-11T01:24:55;14.00;;;10.60;;
76826;SDS011;65788;52.284;20.890;2022-12-11T01:27:26;14.70;;;10.50;;
76826;SDS011;65788;52.284;20.890;2022-12-11T01:29:57;15.00;;;10.70;;
76826;SDS011;65788;52.284;20.890;2022-12-11T01:32:32;15.00;;;10.70;;
76826;SDS011;65788;52.284;20.890;2022-12-11T01:35:05;14.40;;;10.30;;
76826;SDS011;65788;52.284;20.890;2022-12-11T01:37:37;14.40;;;10.70;;
76826;SDS011;65788;52.284;20.890;2022-12-11T01:40:12;13.30;;;10.20;;
76826;SDS011;65788;52.284;20.890;2022-12-11T01:42:44;13.40;;;10.30;;
76826;SDS011;65788;52.284;20.890;2022-12-11T01:45:27;13.40;;;9.70;;
76826;SDS011;65788;52.284;20.890;2022-12-11T01:48:07;14.50;;;10.50;;
76826;SDS011;65788;52.284;20.890;2022-12-11T01:50:42;14.40;;;10.30;;
76826;SDS011;65788;52.284;20.890;2022-12-11T01:53:19;12.60;;;9.40;;
76826;SDS011;65788;52.284;20.890;2022-12-11T01:55:58;13.80;;;10.20;;
76826;SDS011;65788;52.284;20.890;2022-12-11T01:58:32;13.90;;;9.90;;
76826;SDS011;65788;52.284;20.890;2022-12-11T02:01:07;13.20;;;9.90;;
76826;SDS011;65788;52.284;20.890;2022-12-11T02:03:42;12.90;;;9.20;;
76826;SDS011;65788;52.284;20.890;2022-12-11T02:06:30;13.50;;;9.90;;
76826;SDS011;65788;52.284;20.890;2022-12-11T02:09:04;12.90;;;9.90;;
76826;SDS011;65788;52.284;20.890;2022-12-11T02:11:44;13.50;;;9.80;;
76826;SDS011;65788;52.284;20.890;2022-12-11T02:14:24;12.80;;;9.50;;
76826;SDS011;65788;52.284;20.890;2022-12-11T02:17:03;13.40;;;9.20;;
76826;SDS011;65788;52.284;20.890;2022-12-11T02:19:50;13.10;;;9.70;;
76826;SDS011;65788;52.284;20.890;2022-12-11T02:22:36;13.30;;;10.10;;
76826;SDS011;65788;52.284;20.890;2022-12-11T02:25:23;13.30;;;9.90;;
76826;SDS011;65788;52.284;20.890;2022-12-11T02:28:10;12.30;;;9.40;;
76826;SDS011;65788;52.284;20.890;2022-12-11T02:30:49;13.10;;;9.60;;
76826;SDS011;65788;52.284;20.890;2022-12-11T02:33:24;12.70;;;9.40;;
76826;SDS011;65788;52.284;20.890;2022-12-11T02:36:01;12.40;;;9.10;;
76826;SDS011;65788;52.284;20.890;2022-12-11T02:38:38;12.10;;;9.20;;
76826;SDS011;65788;52.284;20.890;2022-12-11T02:41:14;12.80;;;9.20;;
76826;SDS011;65788;52.284;20.890;2022-12-11T02:43:46;12.90;;;9.40;;
76826;SDS011;65788;52.284;20.890;2022-12-11T02:46:18;12.70;;;9.50;;
76826;SDS011;65788;52.284;20.890;2022-12-11T02:48:52;12.40;;;9.50;;
76826;SDS011;65788;52.284;20.890;2022-12-11T02:51:24;13.20;;;10.00;;
76826;SDS011;65788;52.284;20.890;2022-12-11T02:53:58;13.20;;;10.30;;
76826;SDS011;65788;52.284;20.890;2022-12-11T02:56:31;15.00;;;10.20;;
76826;SDS011;65788;52.284;20.890;2022-12-11T02:59:08;13.20;;;10.20;;
76826;SDS011;65788;52.284;20.890;2022-12-11T03:01:43;13.80;;;10.50;;
76826;SDS011;65788;52.284;20.890;2022-12-11T03:04:15;13.50;;;10.00;;
76826;SDS011;65788;52.284;20.890;2022-12-11T03:06:52;13.00;;;9.80;;
76826;SDS011;65788;52.284;20.890;2022-12-11T03:09:28;13.70;;;10.50;;
76826;SDS011;65788;52.284;20.890;2022-12-11T03:12:00;13.50;;;10.10;;
76826;SDS011;65788;52.284;20.890;2022-12-11T03:14:34;14.30;;;10.70;;
76826;SDS011;65788;52.284;20.890;2022-12-11T03:17:10;14.50;;;10.50;;
76826;SDS011;65788;52.284;20.890;2022-12-11T03:19:46;14.60;;;10.60;;
76826;SDS011;65788;52.284;20.890;2022-12-11T03:22:21;14.70;;;10.70;;
76826;SDS011;65788;52.284;20.890;2022-12-11T03:25:01;14.10;;;10.10;;
76826;SDS011;65788;52.284;20.890;2022-12-11T03:27:36;14.90;;;10.50;;
76826;SDS011;65788;52.284;20.890;2022-12-11T03:30:13;15.70;;;11.80;;
76826;SDS011;65788;52.284;20.890;2022-12-11T03:32:50;14.30;;;10.80;;
76826;SDS011;65788;52.284;20.890;2022-12-11T03:35:31;14.10;;;10.50;;
76826;SDS011;65788;52.284;20.890;2022-12-11T03:38:09;13.40;;;10.20;;
76826;SDS011;65788;52.284;20.890;2022-12-11T03:40:45;14.60;;;11.00;;
76826;SDS011;65788;52.284;20.890;2022-12-11T03:43:21;16.20;;;11.70;;
76826;SDS011;65788;52.284;20.890;2022-12-11T03:45:57;15.60;;;11.30;;
76826;SDS011;65788;52.284;20.890;2022-12-11T03:48:31;14.50;;;10.90;;
76826;SDS011;65788;52.284;20.890;2022-12-11T03:51:07;14.10;;;10.40;;
76826;SDS011;65788;52.284;20.890;2022-12-11T03:53:39;15.30;;;11.50;;
76826;SDS011;65788;52.284;20.890;2022-12-11T03:58:48;15.50;;;10.80;;
76826;SDS011;65788;52.284;20.890;2022-12-11T04:01:20;14.80;;;10.90;;
76826;SDS011;65788;52.284;20.890;2022-12-11T04:03:51;14.60;;;10.30;;
76826;SDS011;65788;52.284;20.890;2022-12-11T04:06:22;15.10;;;11.20;;
76826;SDS011;65788;52.284;20.890;2022-12-11T04:08:54;15.20;;;11.30;;
76826;SDS011;65788;52.284;20.890;2022-12-11T04:11:25;13.60;;;10.00;;
76826;SDS011;65788;52.284;20.890;2022-12-11T04:14:07;14.60;;;10.70;;
76826;SDS011;65788;52.284;20.890;2022-12-11T04:16:58;14.70;;;10.40;;
76826;SDS011;65788;52.284;20.890;2022-12-11T04:19:29;15.00;;;10.80;;
76826;SDS011;65788;52.284;20.890;2022-12-11T04:22:21;13.70;;;10.30;;
76826;SDS011;65788;52.284;20.890;2022-12-11T04:25:09;14.20;;;10.60;;
76826;SDS011;65788;52.284;20.890;2022-12-11T04:27:40;13.60;;;10.40;;
76826;SDS011;65788;52.284;20.890;2022-12-11T04:30:18;14.70;;;10.20;;
76826;SDS011;65788;52.284;20.890;2022-12-11T04:32:51;14.10;;;9.80;;
76826;SDS011;65788;52.284;20.890;2022-12-11T04:35:23;13.50;;;10.10;;
76826;SDS011;65788;52.284;20.890;2022-12-11T04:37:54;14.40;;;10.30;;
76826;SDS011;65788;52.284;20.890;2022-12-11T04:40:25;13.50;;;9.70;;
76826;SDS011;65788;52.284;20.890;2022-12-11T04:42:59;15.30;;;10.40;;
76826;SDS011;65788;52.284;20.890;2022-12-11T04:45:32;14.10;;;10.40;;
76826;SDS011;65788;52.284;20.890;2022-12-11T04:48:03;14.00;;;10.50;;
76826;SDS011;65788;52.284;20.890;2022-12-11T04:50:35;14.00;;;10.20;;
76826;SDS011;65788;52.284;20.890;2022-12-11T04:53:06;13.70;;;10.20;;
76826;SDS011;65788;52.284;20.890;2022-12-11T04:55:39;13.80;;;10.10;;
76826;SDS011;65788;52.284;20.890;2022-12-11T04:58:13;13.20;;;9.90;;
76826;SDS011;65788;52.284;20.890;2022-12-11T05:00:44;14.30;;;10.40;;
76826;SDS011;65788;52.284;20.890;2022-12-11T05:03:16;14.30;;;10.70;;
76826;SDS011;65788;52.284;20.890;2022-12-11T05:05:48;13.70;;;10.00;;
76826;SDS011;65788;52.284;20.890;2022-12-11T05:08:20;13.10;;;9.80;;
76826;SDS011;65788;52.284;20.890;2022-12-11T05:10:55;13.90;;;9.70;;
76826;SDS011;65788;52.284;20.890;2022-12-11T05:13:26;14.60;;;10.60;;
76826;SDS011;65788;52.284;20.890;2022-12-11T05:15:58;13.20;;;9.90;;
76826;SDS011;65788;52.284;20.890;2022-12-11T05:18:31;13.10;;;9.90;;
76826;SDS011;65788;52.284;20.890;2022-12-11T05:21:03;13.50;;;9.70;;
76826;SDS011;65788;52.284;20.890;2022-12-11T05:23:36;13.20;;;9.50;;
76826;SDS011;65788;52.284;20.890;2022-12-11T05:26:11;13.60;;;9.60;;
76826;SDS011;65788;52.284;20.890;2022-12-11T05:28:44;13.10;;;9.50;;
76826;SDS011;65788;52.284;20.890;2022-12-11T05:31:19;12.00;;;8.80;;
76826;SDS011;65788;52.284;20.890;2022-12-11T05:33:52;12.90;;;9.60;;
76826;SDS011;65788;52.284;20.890;2022-12-11T05:36:25;12.80;;;9.50;;
76826;SDS011;65788;52.284;20.890;2022-12-11T05:38:57;13.20;;;9.80;;
76826;SDS011;65788;52.284;20.890;2022-12-11T05:41:31;12.60;;;9.10;;
76826;SDS011;65788;52.284;20.890;2022-12-11T05:44:02;12.20;;;9.40;;
76826;SDS011;65788;52.284;20.890;2022-12-11T05:46:33;13.40;;;9.50;;
76826;SDS011;65788;52.284;20.890;2022-12-11T05:49:04;13.70;;;10.00;;
76826;SDS011;65788;52.284;20.890;2022-12-11T05:51:36;13.90;;;9.10;;
76826;SDS011;65788;52.284;20.890;2022-12-11T05:54:08;13.30;;;9.50;;
76826;SDS011;65788;52.284;20.890;2022-12-11T05:56:40;12.30;;;9.10;;
76826;SDS011;65788;52.284;20.890;2022-12-11T05:59:11;14.20;;;9.10;;
76826;SDS011;65788;52.284;20.890;2022-12-11T06:01:42;12.70;;;9.00;;
76826;SDS011;65788;52.284;20.890;2022-12-11T06:04:13;12.30;;;9.20;;
76826;SDS011;65788;52.284;20.890;2022-12-11T06:06:44;12.90;;;9.20;;
76826;SDS011;65788;52.284;20.890;2022-12-11T06:09:15;12.60;;;9.20;;
76826;SDS011;65788;52.284;20.890;2022-12-11T06:11:46;11.30;;;8.80;;
76826;SDS011;65788;52.284;20.890;2022-12-11T06:14:17;14.10;;;9.50;;
76826;SDS011;65788;52.284;20.890;2022-12-11T06:16:48;13.50;;;9.80;;
76826;SDS011;65788;52.284;20.890;2022-12-11T06:19:20;13.60;;;8.60;;
76826;SDS011;65788;52.284;20.890;2022-12-11T06:21:51;13.00;;;9.40;;
76826;SDS011;65788;52.284;20.890;2022-12-11T06:24:22;11.10;;;8.20;;
76826;SDS011;65788;52.284;20.890;2022-12-11T06:26:53;11.90;;;8.90;;
76826;SDS011;65788;52.284;20.890;2022-12-11T06:29:24;11.80;;;8.90;;
76826;SDS011;65788;52.284;20.890;2022-12-11T06:31:56;11.90;;;9.30;;
76826;SDS011;65788;52.284;20.890;2022-12-11T06:34:26;11.30;;;8.40;;
76826;SDS011;65788;52.284;20.890;2022-12-11T06:36:58;11.30;;;8.40;;
76826;SDS011;65788;52.284;20.890;2022-12-11T06:39:28;11.60;;;8.60;;
76826;SDS011;65788;52.284;20.890;2022-12-11T06:41:59;11.70;;;8.40;;
76826;SDS011;65788;52.284;20.890;2022-12-11T06:44:30;11.80;;;8.30;;
76826;SDS011;65788;52.284;20.890;2022-12-11T06:47:02;11.60;;;8.50;;
76826;SDS011;65788;52.284;20.890;2022-12-11T06:49:35;10.80;;;8.20;;
76826;SDS011;65788;52.284;20.890;2022-12-11T06:52:06;11.30;;;7.90;;
76826;SDS011;65788;52.284;20.890;2022-12-11T06:54:39;10.90;;;7.90;;
76826;SDS011;65788;52.284;20.890;2022-12-11T06:57:10;11.80;;;8.30;;
76826;SDS011;65788;52.284;20.890;2022-12-11T06:59:41;11.00;;;8.30;;
76826;SDS011;65788;52.284;20.890;2022-12-11T07:02:13;10.40;;;7.90;;
76826;SDS011;65788;52.284;20.890;2022-12-11T07:04:46;11.00;;;7.90;;
76826;SDS011;65788;52.284;20.890;2022-12-11T07:07:19;11.20;;;8.10;;
76826;SDS011;65788;52.284;20.890;2022-12-11T07:09:50;11.30;;;8.30;;
76826;SDS011;65788;52.284;20.890;2022-12-11T07:12:21;10.90;;;8.00;;
76826;SDS011;65788;52.284;20.890;2022-12-11T07:14:53;11.10;;;8.10;;
76826;SDS011;65788;52.284;20.890;2022-12-11T07:17:26;11.40;;;8.00;;
76826;SDS011;65788;52.284;20.890;2022-12-11T07:19:59;11.60;;;8.40;;
76826;SDS011;65788;52.284;20.890;2022-12-11T07:22:30;11.70;;;8.40;;
76826;SDS011;65788;52.284;20.890;2022-12-11T07:25:01;11.40;;;8.80;;
76826;SDS011;65788;52.284;20.890;2022-12-11T07:27:34;10.70;;;8.20;;
76826;SDS011;65788;52.284;20.890;2022-12-11T07:30:09;10.70;;;8.10;;
76826;SDS011;65788;52.284;20.890;2022-12-11T07:32:42;10.20;;;8.10;;
76826;SDS011;65788;52.284;20.890;2022-12-11T07:35:13;10.80;;;7.90;;
76826;SDS011;65788;52.284;20.890;2022-12-11T07:37:44;10.70;;;8.20;;
76826;SDS011;65788;52.284;20.890;2022-12-11T07:40:15;10.50;;;7.90;;
76826;SDS011;65788;52.284;20.890;2022-12-11T07:42:50;9.70;;;7.20;;
76826;SDS011;65788;52.284;20.890;2022-12-11T07:45:22;11.40;;;7.90;;
76826;SDS011;65788;52.284;20.890;2022-12-11T07:47:53;10.60;;;7.60;;
76826;SDS011;65788;52.284;20.890;2022-12-11T07:50:25;10.40;;;7.70;;
76826;SDS011;65788;52.284;20.890;2022-12-11T07:52:55;11.50;;;7.90;;
76826;SDS011;65788;52.284;20.890;2022-12-11T07:55:26;11.90;;;7.30;;
76826;SDS011;65788;52.284;20.890;2022-12-11T07:57:57;11.60;;;7.20;;
76826;SDS011;65788;52.284;20.890;2022-12-11T08:00:29;9.70;;;7.10;;
76826;SDS011;65788;52.284;20.890;2022-12-11T08:03:00;10.50;;;7.70;;
76826;SDS011;65788;52.284;20.890;2022-12-11T08:05:32;10.00;;;7.20;;
76826;SDS011;65788;52.284;20.890;2022-12-11T08:08:06;10.30;;;7.10;;
76826;SDS011;65788;52.284;20.890;2022-12-11T08:10:37;10.80;;;7.30;;
76826;SDS011;65788;52.284;20.890;2022-12-11T08:13:08;9.20;;;6.70;;
76826;SDS011;65788;52.284;20.890;2022-12-11T08:15:39;11.10;;;7.30;;
76826;SDS011;65788;52.284;20.890;2022-12-11T08:18:10;10.30;;;7.60;;
76826;SDS011;65788;52.284;20.890;2022-12-11T08:20:42;10.00;;;6.90;;
76826;SDS011;65788;52.284;20.890;2022-12-11T08:23:13;9.70;;;7.00;;
76826;SDS011;65788;52.284;20.890;2022-12-11T08:25:44;9.90;;;6.50;;
76826;SDS011;65788;52.284;20.890;2022-12-11T08:28:15;10.50;;;6.90;;
76826;SDS011;65788;52.284;20.890;2022-12-11T08:30:46;9.20;;;6.70;;
76826;SDS011;65788;52.284;20.890;2022-12-11T08:33:18;9.60;;;6.80;;
76826;SDS011;65788;52.284;20.890;2022-12-11T08:35:52;9.90;;;6.90;;
76826;SDS011;65788;52.284;20.890;2022-12-11T08:38:23;8.20;;;6.10;;
76826;SDS011;65788;52.284;20.890;2022-12-11T08:40:55;9.00;;;6.70;;
76826;SDS011;65788;52.284;20.890;2022-12-11T08:43:26;8.80;;;6.50;;
76826;SDS011;65788;52.284;20.890;2022-12-11T08:45:57;8.30;;;6.00;;
76826;SDS011;65788;52.284;20.890;2022-12-11T08:48:31;9.00;;;6.40;;
76826;SDS011;65788;52.284;20.890;2022-12-11T08:51:04;9.30;;;6.60;;
76826;SDS011;65788;52.284;20.890;2022-12-11T08:53:40;8.20;;;6.30;;
76826;SDS011;65788;52.284;20.890;2022-12-11T08:56:12;9.20;;;6.50;;
76826;SDS011;65788;52.284;20.890;2022-12-11T08:58:46;9.10;;;6.20;;
76826;SDS011;65788;52.284;20.890;2022-12-11T09:01:18;8.90;;;6.10;;
76826;SDS011;65788;52.284;20.890;2022-12-11T09:03:52;9.10;;;5.90;;
76826;SDS011;65788;52.284;20.890;2022-12-11T09:06:25;9.70;;;6.70;;
76826;SDS011;65788;52.284;20.890;2022-12-11T09:08:59;8.60;;;5.90;;
76826;SDS011;65788;52.284;20.890;2022-12-11T09:11:33;9.20;;;5.90;;
76826;SDS011;65788;52.284;20.890;2022-12-11T09:14:05;8.20;;;6.10;;
76826;SDS011;65788;52.284;20.890;2022-12-11T09:16:37;8.20;;;5.70;;
76826;SDS011;65788;52.284;20.890;2022-12-11T09:19:10;8.20;;;5.70;;
76826;SDS011;65788;52.284;20.890;2022-12-11T09:21:42;7.50;;;5.40;;
76826;SDS011;65788;52.284;20.890;2022-12-11T09:24:17;8.10;;;5.70;;
76826;SDS011;65788;52.284;20.890;2022-12-11T09:26:48;8.10;;;5.60;;
76826;SDS011;65788;52.284;20.890;2022-12-11T09:29:21;8.10;;;5.60;;
76826;SDS011;65788;52.284;20.890;2022-12-11T09:31:53;7.50;;;5.60;;
76826;SDS011;65788;52.284;20.890;2022-12-11T09:34:25;8.60;;;5.90;;
76826;SDS011;65788;52.284;20.890;2022-12-11T09:36:59;6.90;;;5.20;;
76826;SDS011;65788;52.284;20.890;2022-12-11T09:39:35;7.90;;;5.60;;
76826;SDS011;65788;52.284;20.890;2022-12-11T09:42:07;8.90;;;5.50;;
76826;SDS011;65788;52.284;20.890;2022-12-11T09:44:48;8.80;;;5.50;;
76826;SDS011;65788;52.284;20.890;2022-12-11T09:47:26;8.10;;;5.70;;
76826;SDS011;65788;52.284;20.890;2022-12-11T09:50:05;7.40;;;5.30;;
76826;SDS011;65788;52.284;20.890;2022-12-11T09:52:47;7.50;;;5.70;;
76826;SDS011;65788;52.284;20.890;2022-12-11T09:55:31;7.50;;;5.60;;
76826;SDS011;65788;52.284;20.890;2022-12-11T09:58:12;8.70;;;6.00;;
76826;SDS011;65788;52.284;20.890;2022-12-11T10:00:54;7.50;;;5.40;;
76826;SDS011;65788;52.284;20.890;2022-12-11T10:03:37;7.20;;;5.30;;
76826;SDS011;65788;52.284;20.890;2022-12-11T10:06:23;7.80;;;5.80;;
76826;SDS011;65788;52.284;20.890;2022-12-11T10:09:02;7.50;;;5.60;;
76826;SDS011;65788;52.284;20.890;2022-12-11T10:11:57;7.50;;;5.40;;
76826;SDS011;65788;52.284;20.890;2022-12-11T10:14:43;7.30;;;5.30;;
76826;SDS011;65788;52.284;20.890;2022-12-11T10:17:24;7.40;;;5.50;;
76826;SDS011;65788;52.284;20.890;2022-12-11T10:19:59;8.40;;;5.40;;
76826;SDS011;65788;52.284;20.890;2022-12-11T10:22:42;8.30;;;5.60;;
76826;SDS011;65788;52.284;20.890;2022-12-11T10:25:17;7.20;;;5.50;;
76826;SDS011;65788;52.284;20.890;2022-12-11T10:27:56;7.50;;;5.50;;
76826;SDS011;65788;52.284;20.890;2022-12-11T10:30:28;7.80;;;5.50;;
76826;SDS011;65788;52.284;20.890;2022-12-11T10:33:10;7.00;;;5.50;;
76826;SDS011;65788;52.284;20.890;2022-12-11T10:35:48;7.20;;;5.50;;
76826;SDS011;65788;52.284;20.890;2022-12-11T10:38:22;7.30;;;5.90;;
76826;SDS011;65788;52.284;20.890;2022-12-11T10:40:58;7.90;;;5.10;;
76826;SDS011;65788;52.284;20.890;2022-12-11T10:43:38;7.40;;;5.50;;
76826;SDS011;65788;52.284;20.890;2022-12-11T10:46:16;7.90;;;6.00;;
76826;SDS011;65788;52.284;20.890;2022-12-11T10:48:53;7.50;;;5.40;;
76826;SDS011;65788;52.284;20.890;2022-12-11T10:51:34;7.60;;;5.30;;
76826;SDS011;65788;52.284;20.890;2022-12-11T10:54:07;7.50;;;5.40;;
76826;SDS011;65788;52.284;20.890;2022-12-11T10:56:48;7.40;;;5.80;;
76826;SDS011;65788;52.284;20.890;2022-12-11T10:59:21;7.00;;;5.30;;
76826;SDS011;65788;52.284;20.890;2022-12-11T11:01:58;7.30;;;5.30;;
76826;SDS011;65788;52.284;20.890;2022-12-11T11:04:34;6.80;;;5.30;;
76826;SDS011;65788;52.284;20.890;2022-12-11T11:07:11;7.00;;;5.10;;
76826;SDS011;65788;52.284;20.890;2022-12-11T11:09:49;6.90;;;5.20;;
76826;SDS011;65788;52.284;20.890;2022-12-11T11:12:36;7.90;;;5.40;;
76826;SDS011;65788;52.284;20.890;2022-12-11T11:15:10;7.90;;;5.60;;
76826;SDS011;65788;52.284;20.890;2022-12-11T11:17:46;8.70;;;5.30;;
76826;SDS011;65788;52.284;20.890;2022-12-11T11:20:23;7.00;;;4.90;;
76826;SDS011;65788;52.284;20.890;2022-12-11T11:22:56;7.50;;;5.40;;
76826;SDS011;65788;52.284;20.890;2022-12-11T11:25:32;6.40;;;5.00;;
76826;SDS011;65788;52.284;20.890;2022-12-11T11:28:04;7.60;;;5.50;;
76826;SDS011;65788;52.284;20.890;2022-12-11T11:30:52;7.60;;;5.50;;
76826;SDS011;65788;52.284;20.890;2022-12-11T11:33:28;7.30;;;5.30;;
76826;SDS011;65788;52.284;20.890;2022-12-11T11:36:02;7.70;;;5.30;;
76826;SDS011;65788;52.284;20.890;2022-12-11T11:38:37;7.50;;;5.50;;
76826;SDS011;65788;52.284;20.890;2022-12-11T11:41:16;7.90;;;5.70;;
76826;SDS011;65788;52.284;20.890;2022-12-11T11:43:49;7.20;;;5.30;;
76826;SDS011;65788;52.284;20.890;2022-12-11T11:46:25;7.80;;;5.70;;
76826;SDS011;65788;52.284;20.890;2022-12-11T11:49:05;6.60;;;5.40;;
76826;SDS011;65788;52.284;20.890;2022-12-11T11:51:42;6.60;;;5.40;;
76826;SDS011;65788;52.284;20.890;2022-12-11T11:54:26;7.50;;;5.60;;
76826;SDS011;65788;52.284;20.890;2022-12-11T11:57:03;7.10;;;5.40;;
76826;SDS011;65788;52.284;20.890;2022-12-11T11:59:48;6.90;;;5.20;;
76826;SDS011;65788;52.284;20.890;2022-12-11T12:02:22;7.70;;;5.80;;
76826;SDS011;65788;52.284;20.890;2022-12-11T12:04:54;7.10;;;5.30;;
76826;SDS011;65788;52.284;20.890;2022-12-11T12:07:28;7.40;;;5.70;;
76826;SDS011;65788;52.284;20.890;2022-12-11T12:10:12;6.90;;;5.40;;
76826;SDS011;65788;52.284;20.890;2022-12-11T12:12:51;7.50;;;5.70;;
76826;SDS011;65788;52.284;20.890;2022-12-11T12:15:33;8.10;;;5.50;;
76826;SDS011;65788;52.284;20.890;2022-12-11T12:18:13;7.30;;;5.40;;
76826;SDS011;65788;52.284;20.890;2022-12-11T12:20:57;12.00;;;6.10;;
76826;SDS011;65788;52.284;20.890;2022-12-11T12:23:43;7.50;;;5.60;;
76826;SDS011;65788;52.284;20.890;2022-12-11T12:26:29;7.30;;;5.40;;
76826;SDS011;65788;52.284;20.890;2022-12-11T12:29:05;6.60;;;5.60;;
76826;SDS011;65788;52.284;20.890;2022-12-11T12:31:47;7.50;;;5.40;;
76826;SDS011;65788;52.284;20.890;2022-12-11T12:34:27;6.80;;;5.40;;
76826;SDS011;65788;52.284;20.890;2022-12-11T12:37:18;7.40;;;5.60;;
76826;SDS011;65788;52.284;20.890;2022-12-11T12:40:12;7.70;;;5.30;;
76826;SDS011;65788;52.284;20.890;2022-12-11T12:42:50;7.10;;;5.40;;
76826;SDS011;65788;52.284;20.890;2022-12-11T12:45:29;6.90;;;5.20;;
76826;SDS011;65788;52.284;20.890;2022-12-11T12:48:07;7.40;;;5.50;;
76826;SDS011;65788;52.284;20.890;2022-12-11T12:50:39;8.30;;;5.20;;
76826;SDS011;65788;52.284;20.890;2022-12-11T12:53:22;6.70;;;5.20;;
76826;SDS011;65788;52.284;20.890;2022-12-11T12:58:27;7.20;;;5.10;;
76826;SDS011;65788;52.284;20.890;2022-12-11T13:01:12;7.40;;;5.50;;
76826;SDS011;65788;52.284;20.890;2022-12-11T13:03:49;6.90;;;5.30;;
76826;SDS011;65788;52.284;20.890;2022-12-11T13:06:28;7.10;;;5.20;;
76826;SDS011;65788;52.284;20.890;2022-12-11T13:09:15;8.20;;;5.30;;
76826;SDS011;65788;52.284;20.890;2022-12-11T13:11:50;8.30;;;5.00;;
76826;SDS011;65788;52.284;20.890;2022-12-11T13:14:26;7.10;;;5.40;;
76826;SDS011;65788;52.284;20.890;2022-12-11T13:20:18;6.40;;;4.90;;
76826;SDS011;65788;52.284;20.890;2022-12-11T13:22:55;7.00;;;5.30;;
76826;SDS011;65788;52.284;20.890;2022-12-11T13:25:54;7.90;;;5.40;;
76826;SDS011;65788;52.284;20.890;2022-12-11T13:28:29;6.60;;;5.10;;
76826;SDS011;65788;52.284;20.890;2022-12-11T13:31:05;6.20;;;4.80;;
76826;SDS011;65788;52.284;20.890;2022-12-11T13:34:21;7.40;;;5.40;;
76826;SDS011;65788;52.284;20.890;2022-12-11T13:36:57;6.60;;;5.30;;
76826;SDS011;65788;52.284;20.890;2022-12-11T13:39:29;7.40;;;5.70;;
76826;SDS011;65788;52.284;20.890;2022-12-11T13:42:03;7.10;;;5.40;;
76826;SDS011;65788;52.284;20.890;2022-12-11T13:44:38;6.90;;;5.50;;
76826;SDS011;65788;52.284;20.890;2022-12-11T13:47:16;7.10;;;5.40;;
76826;SDS011;65788;52.284;20.890;2022-12-11T13:49:51;7.20;;;5.30;;
76826;SDS011;65788;52.284;20.890;2022-12-11T13:52:29;7.40;;;5.50;;
76826;SDS011;65788;52.284;20.890;2022-12-11T13:55:00;7.40;;;5.60;;
76826;SDS011;65788;52.284;20.890;2022-12-11T13:57:44;6.80;;;5.40;;
76826;SDS011;65788;52.284;20.890;2022-12-11T14:00:20;7.00;;;5.40;;
76826;SDS011;65788;52.284;20.890;2022-12-11T14:03:03;7.30;;;5.60;;
76826;SDS011;65788;52.284;20.890;2022-12-11T14:05:41;7.10;;;5.40;;
76826;SDS011;65788;52.284;20.890;2022-12-11T14:08:20;6.40;;;5.00;;
76826;SDS011;65788;52.284;20.890;2022-12-11T14:10:55;7.30;;;5.50;;
76826;SDS011;65788;52.284;20.890;2022-12-11T14:13:28;6.50;;;4.90;;
76826;SDS011;65788;52.284;20.890;2022-12-11T14:16:03;7.20;;;5.30;;
76826;SDS011;65788;52.284;20.890;2022-12-11T14:18:50;6.60;;;5.10;;
76826;SDS011;65788;52.284;20.890;2022-12-11T14:21:25;7.10;;;5.40;;
76826;SDS011;65788;52.284;20.890;2022-12-11T14:23:57;6.50;;;5.10;;
76826;SDS011;65788;52.284;20.890;2022-12-11T14:26:35;7.90;;;5.50;;
76826;SDS011;65788;52.284;20.890;2022-12-11T14:29:06;7.40;;;5.50;;
76826;SDS011;65788;52.284;20.890;2022-12-11T14:31:52;7.20;;;5.80;;
76826;SDS011;65788;52.284;20.890;2022-12-11T14:34:31;7.00;;;5.30;;
76826;SDS011;65788;52.284;20.890;2022-12-11T14:37:07;7.40;;;5.70;;
76826;SDS011;65788;52.284;20.890;2022-12-11T14:39:44;8.50;;;5.90;;
76826;SDS011;65788;52.284;20.890;2022-12-11T14:42:18;8.50;;;5.80;;
76826;SDS011;65788;52.284;20.890;2022-12-11T14:44:55;9.10;;;6.10;;
76826;SDS011;65788;52.284;20.890;2022-12-11T14:47:32;9.20;;;6.10;;
76826;SDS011;65788;52.284;20.890;2022-12-11T14:50:10;8.70;;;6.50;;
76826;SDS011;65788;52.284;20.890;2022-12-11T14:52:46;8.50;;;6.50;;
76826;SDS011;65788;52.284;20.890;2022-12-11T14:55:22;8.10;;;6.00;;
76826;SDS011;65788;52.284;20.890;2022-12-11T14:58:00;8.20;;;6.10;;
76826;SDS011;65788;52.284;20.890;2022-12-11T15:00:42;8.00;;;6.60;;
76826;SDS011;65788;52.284;20.890;2022-12-11T15:03:29;8.90;;;6.30;;
76826;SDS011;65788;52.284;20.890;2022-12-11T15:08:54;9.50;;;6.40;;
76826;SDS011;65788;52.284;20.890;2022-12-11T15:11:34;8.90;;;6.20;;
76826;SDS011;65788;52.284;20.890;2022-12-11T15:14:13;9.80;;;6.70;;
76826;SDS011;65788;52.284;20.890;2022-12-11T15:16:49;8.80;;;6.30;;
76826;SDS011;65788;52.284;20.890;2022-12-11T15:19:26;9.20;;;6.40;;
76826;SDS011;65788;52.284;20.890;2022-12-11T15:22:03;8.80;;;6.40;;